createdAt,value
2018-06-02T04:10:31.162Z,348
2018-06-02T04:10:56.650Z,348
2018-06-02T04:11:22.127Z,356
2018-06-02T04:11:47.637Z,356
2018-06-02T04:12:13.098Z,368
2018-06-02T04:12:38.588Z,388
2018-06-02T04:13:04.067Z,424
2018-06-02T04:14:17.850Z,440
2018-06-02T04:14:43.342Z,428
2018-06-02T04:15:08.846Z,424
2018-06-02T04:15:34.338Z,412
2018-06-02T04:15:59.862Z,424
2018-06-02T04:16:25.343Z,436
2018-06-02T04:16:50.856Z,444
2018-06-02T04:17:16.360Z,456
2018-06-02T04:17:41.856Z,460
2018-06-02T04:18:07.344Z,460
2018-06-02T04:18:32.837Z,456
2018-06-02T04:18:58.314Z,448
2018-06-02T04:19:23.790Z,448
2018-06-02T04:19:49.282Z,440
2018-06-02T04:20:14.796Z,452
2018-06-02T04:20:40.305Z,456
2018-06-02T04:21:05.831Z,436
2018-06-02T04:21:31.333Z,416
2018-06-02T04:21:56.838Z,416
2018-06-02T04:22:22.333Z,432
2018-06-02T04:22:47.820Z,440
2018-06-02T04:23:13.333Z,440
2018-06-02T04:23:38.828Z,440
2018-06-02T04:24:04.326Z,432
2018-06-02T04:24:29.813Z,432
2018-06-02T04:24:55.270Z,428
2018-06-02T04:25:20.810Z,424
2018-06-02T04:25:46.311Z,408
2018-06-02T04:26:11.806Z,392
2018-06-02T04:26:37.289Z,404
2018-06-02T04:27:40.748Z,400
2018-06-02T04:28:06.270Z,400
2018-06-02T04:28:31.730Z,404
2018-06-02T04:28:57.244Z,428
2018-06-02T04:29:22.738Z,456
2018-06-02T04:29:48.189Z,456
2018-06-02T04:30:13.684Z,448
2018-06-02T04:30:39.192Z,448
2018-06-02T04:31:04.681Z,448
2018-06-02T04:31:30.174Z,444
2018-06-02T04:31:55.652Z,444
2018-06-02T04:32:21.111Z,440
2018-06-02T04:32:46.659Z,444
2018-06-02T04:33:12.156Z,440
2018-06-02T04:33:37.646Z,444
2018-06-02T04:34:03.094Z,456
2018-06-02T04:34:28.640Z,452
2018-06-02T04:34:54.136Z,432
2018-06-02T04:35:19.641Z,432
2018-06-02T04:36:22.779Z,416
2018-06-02T04:36:48.368Z,424
2018-06-02T04:37:13.864Z,420
2018-06-02T04:37:39.403Z,424
2018-06-02T04:38:04.941Z,432
2018-06-02T04:38:30.466Z,432
2018-06-02T04:38:55.958Z,416
2018-06-02T04:39:21.483Z,416
2018-06-02T04:39:46.996Z,424
2018-06-02T04:40:12.522Z,424
2018-06-02T04:40:38.098Z,436
2018-06-02T04:41:56.670Z,468
2018-06-02T04:42:22.673Z,480
2018-06-02T04:42:48.267Z,480
2018-06-02T04:43:13.824Z,480
2018-06-02T04:43:39.404Z,484
2018-06-02T04:44:04.973Z,496
2018-06-02T04:44:30.466Z,512
2018-06-02T04:44:55.998Z,520
2018-06-02T04:45:21.478Z,520
2018-06-02T04:45:46.965Z,516
2018-06-02T04:46:12.571Z,524
2018-06-02T04:46:38.327Z,536
2018-06-02T04:47:03.869Z,544
2018-06-02T04:47:29.326Z,592
2018-06-02T04:47:54.822Z,612
2018-06-02T04:48:20.302Z,600
2018-06-02T04:48:45.779Z,600
2018-06-02T04:49:11.255Z,608
2018-06-02T04:49:36.761Z,620
2018-06-02T04:50:02.274Z,600
2018-06-02T04:50:27.750Z,632
2018-06-02T04:50:53.220Z,660
2018-06-02T04:51:18.698Z,656
2018-06-02T04:51:44.176Z,616
2018-06-02T04:52:09.667Z,588
2018-06-02T04:52:35.166Z,584
2018-06-02T04:53:00.637Z,612
2018-06-02T04:53:26.145Z,648
2018-06-02T04:53:51.607Z,652
2018-06-02T04:54:17.085Z,636
2018-06-02T04:54:42.605Z,612
2018-06-02T04:55:08.112Z,620
2018-06-02T04:55:33.573Z,660
2018-06-02T04:55:59.066Z,700
2018-06-02T04:56:24.554Z,720
2018-06-02T04:56:50.094Z,708
2018-06-02T04:57:15.514Z,712
2018-06-02T04:57:41.018Z,728
2018-06-02T04:58:06.516Z,744
2018-06-02T04:58:31.994Z,740
2018-06-02T04:58:57.518Z,744
2018-06-02T04:59:23.016Z,748
2018-06-02T04:59:48.463Z,796
2018-06-02T05:00:13.934Z,796
2018-06-02T05:00:39.426Z,776
2018-06-02T05:01:04.940Z,804
2018-06-02T05:01:30.474Z,816
2018-06-02T05:01:55.984Z,780
2018-06-02T05:02:21.494Z,780
2018-06-02T05:02:47.007Z,772
2018-06-02T05:03:12.496Z,740
2018-06-02T05:03:37.999Z,728
2018-06-02T05:04:03.545Z,708
2018-06-02T05:04:29.156Z,696
2018-06-02T05:04:54.503Z,700
2018-06-02T05:05:19.985Z,692
2018-06-02T05:06:43.609Z,660
2018-06-02T05:07:09.111Z,644
2018-06-02T05:07:34.589Z,644
2018-06-02T05:08:00.081Z,656
2018-06-02T05:08:25.588Z,664
2018-06-02T05:08:51.108Z,660
2018-06-02T05:09:16.598Z,664
2018-06-02T05:09:42.088Z,688
2018-06-02T05:10:07.591Z,704
2018-06-02T05:10:33.092Z,708
2018-06-02T05:10:58.622Z,752
2018-06-02T05:11:24.127Z,760
2018-06-02T05:11:49.600Z,752
2018-06-02T05:12:15.076Z,716
2018-06-02T05:12:40.574Z,680
2018-06-02T05:13:06.087Z,672
2018-06-02T05:13:31.578Z,676
2018-06-02T05:13:57.102Z,684
2018-06-02T05:14:22.653Z,716
2018-06-02T05:14:48.155Z,756
2018-06-02T05:15:13.735Z,768
2018-06-02T05:15:39.159Z,772
2018-06-02T05:16:04.679Z,784
2018-06-02T05:16:30.179Z,772
2018-06-02T05:16:55.658Z,760
2018-06-02T05:17:21.180Z,776
2018-06-02T05:17:46.650Z,844
2018-06-02T05:18:12.183Z,940
2018-06-02T05:18:37.705Z,972
2018-06-02T05:19:03.196Z,940
2018-06-02T05:19:28.718Z,940
2018-06-02T05:19:54.191Z,956
2018-06-02T05:20:19.679Z,904
2018-06-02T05:20:45.177Z,852
2018-06-02T05:21:10.671Z,880
2018-06-02T05:21:36.168Z,928
2018-06-02T05:22:01.662Z,984
2018-06-02T05:22:27.152Z,1044
2018-06-02T05:22:52.634Z,1012
2018-06-02T05:23:18.123Z,960
2018-06-02T05:23:43.649Z,956
2018-06-02T05:24:09.129Z,972
2018-06-02T05:24:34.680Z,988
2018-06-02T05:25:00.161Z,1000
2018-06-02T05:25:25.687Z,1048
2018-06-02T05:25:51.211Z,1044
2018-06-02T05:26:16.690Z,1072
2018-06-02T05:26:42.169Z,1044
2018-06-02T05:27:07.684Z,988
2018-06-02T05:27:33.151Z,952
2018-06-02T05:27:58.672Z,936
2018-06-02T05:28:24.197Z,924
2018-06-02T05:28:49.724Z,892
2018-06-02T05:29:15.278Z,856
2018-06-02T05:29:40.769Z,848
2018-06-02T05:30:06.321Z,852
2018-06-02T05:30:31.859Z,844
2018-06-02T05:30:57.406Z,824
2018-06-02T05:31:22.896Z,820
2018-06-02T05:31:48.435Z,796
2018-06-02T05:32:14.151Z,812
2018-06-02T05:32:39.695Z,808
2018-06-02T05:33:05.342Z,812
2018-06-02T05:33:30.769Z,808
2018-06-02T05:33:56.223Z,800
2018-06-02T05:34:21.727Z,780
2018-06-02T05:34:47.264Z,796
2018-06-02T05:35:12.798Z,788
2018-06-02T05:35:38.301Z,800
2018-06-02T05:36:03.812Z,816
2018-06-02T05:36:29.380Z,812
2018-06-02T05:36:54.903Z,792
2018-06-02T05:37:20.427Z,784
2018-06-02T05:37:45.928Z,804
2018-06-02T05:38:11.437Z,860
2018-06-02T05:38:36.902Z,912
2018-06-02T05:39:02.408Z,964
2018-06-02T05:39:27.913Z,968
2018-06-02T05:39:53.415Z,936
2018-06-02T05:40:18.923Z,912
2018-06-02T05:40:44.432Z,936
2018-06-02T05:41:09.903Z,952
2018-06-02T05:41:35.362Z,980
2018-06-02T05:42:00.836Z,1004
2018-06-02T05:42:26.301Z,1008
2018-06-02T05:42:51.784Z,992
2018-06-02T05:43:17.267Z,976
2018-06-02T05:43:42.757Z,988
2018-06-02T05:44:08.261Z,976
2018-06-02T05:44:33.760Z,1012
2018-06-02T05:44:59.243Z,1076
2018-06-02T05:45:24.728Z,1116
2018-06-02T05:45:50.219Z,1128
2018-06-02T05:46:15.665Z,1144
2018-06-02T05:46:41.174Z,1188
2018-06-02T05:47:06.651Z,1216
2018-06-02T05:47:32.144Z,1248
2018-06-02T05:47:57.619Z,1240
2018-06-02T05:48:23.090Z,1248
2018-06-02T05:48:48.581Z,1252
2018-06-02T05:49:14.037Z,1192
2018-06-02T05:49:39.531Z,1084
2018-06-02T05:50:05.030Z,1008
2018-06-02T05:50:30.539Z,984
2018-06-02T05:50:56.018Z,976
2018-06-02T05:51:21.535Z,928
2018-06-02T05:51:47.005Z,888
2018-06-02T05:52:12.504Z,892
2018-06-02T05:52:38.018Z,924
2018-06-02T05:53:03.465Z,940
2018-06-02T05:53:28.995Z,1004
2018-06-02T05:53:54.490Z,1036
2018-06-02T05:54:19.970Z,1032
2018-06-02T05:54:45.493Z,1048
2018-06-02T05:55:10.998Z,1072
2018-06-02T05:55:36.515Z,1144
2018-06-02T05:56:02.021Z,1208
2018-06-02T05:56:27.521Z,1296
2018-06-02T05:56:52.976Z,1320
2018-06-02T05:57:18.482Z,1252
2018-06-02T05:57:43.970Z,1180
2018-06-02T05:58:09.479Z,1140
2018-06-02T05:58:34.980Z,1188
2018-06-02T05:59:00.516Z,1184
2018-06-02T05:59:26.060Z,1220
2018-06-02T05:59:51.570Z,1304
2018-06-02T06:00:17.011Z,1304
2018-06-02T06:00:42.513Z,1288
2018-06-02T06:01:08.017Z,1276
2018-06-02T06:01:33.512Z,1300
2018-06-02T06:01:59.011Z,1336
2018-06-02T06:02:24.708Z,1408
2018-06-02T06:02:50.052Z,1400
2018-06-02T06:03:15.535Z,1376
2018-06-02T06:03:41.018Z,1368
2018-06-02T06:04:06.542Z,1324
2018-06-02T06:04:32.098Z,1268
2018-06-02T06:04:57.587Z,1192
2018-06-02T06:05:23.069Z,1144
2018-06-02T06:05:48.661Z,1156
2018-06-02T06:06:14.175Z,1184
2018-06-02T06:06:39.629Z,1192
2018-06-02T06:07:05.166Z,1240
2018-06-02T06:08:18.504Z,1356
2018-06-02T06:08:44.044Z,1320
2018-06-02T06:09:09.600Z,1356
2018-06-02T06:09:35.084Z,1476
2018-06-02T06:10:00.618Z,1488
2018-06-02T06:10:26.201Z,1512
2018-06-02T06:10:51.750Z,1572
2018-06-02T06:11:17.287Z,1540
2018-06-02T06:11:42.797Z,1444
2018-06-02T06:12:08.276Z,1400
2018-06-02T06:12:33.746Z,1348
2018-06-02T06:12:59.278Z,1352
2018-06-02T06:13:24.748Z,1352
2018-06-02T06:13:50.229Z,1280
2018-06-02T06:14:15.723Z,1276
2018-06-02T06:14:41.229Z,1292
2018-06-02T06:15:06.721Z,1344
2018-06-02T06:15:32.259Z,1384
2018-06-02T06:15:57.738Z,1368
2018-06-02T06:16:23.239Z,1320
2018-06-02T06:16:48.712Z,1272
2018-06-02T06:17:14.200Z,1272
2018-06-02T06:17:39.697Z,1356
2018-06-02T06:18:05.292Z,1284
2018-06-02T06:18:30.742Z,1264
2018-06-02T06:18:56.237Z,1204
2018-06-02T06:19:21.737Z,1144
2018-06-02T06:19:47.289Z,1168
2018-06-02T06:20:12.795Z,1192
2018-06-02T06:20:38.274Z,1224
2018-06-02T06:21:03.770Z,1196
2018-06-02T06:21:29.252Z,1128
2018-06-02T06:21:54.743Z,1156
2018-06-02T06:22:20.263Z,1220
2018-06-02T06:22:45.748Z,1220
2018-06-02T06:23:11.254Z,1212
2018-06-02T06:23:36.762Z,1228
2018-06-02T06:24:02.223Z,1264
2018-06-02T06:24:27.698Z,1288
2018-06-02T06:24:53.214Z,1288
2018-06-02T06:25:18.711Z,1372
2018-06-02T06:25:44.226Z,1400
2018-06-02T06:27:07.779Z,1380
2018-06-02T06:27:33.269Z,1320
2018-06-02T06:27:58.763Z,1332
2018-06-02T06:28:24.252Z,1328
2018-06-02T06:28:49.807Z,1352
2018-06-02T06:29:15.276Z,1428
2018-06-02T06:29:40.757Z,1500
2018-06-02T06:30:06.208Z,1572
2018-06-02T06:30:31.866Z,1452
2018-06-02T06:30:57.299Z,1372
2018-06-02T06:31:22.894Z,1424
2018-06-02T06:31:48.377Z,1376
2018-06-02T06:32:13.971Z,1400
2018-06-02T06:32:39.535Z,1348
2018-06-02T06:33:05.123Z,1356
2018-06-02T06:33:30.509Z,1484
2018-06-02T06:33:56.028Z,1524
2018-06-02T06:34:21.493Z,1448
2018-06-02T06:34:46.983Z,1424
2018-06-02T06:35:12.486Z,1468
2018-06-02T06:35:37.983Z,1576
2018-06-02T06:36:03.452Z,1644
2018-06-02T06:36:28.963Z,1648
2018-06-02T06:36:54.413Z,1580
2018-06-02T06:37:20.073Z,1552
2018-06-02T06:37:45.585Z,1608
2018-06-02T06:38:11.078Z,1672
2018-06-02T06:38:36.566Z,1688
2018-06-02T06:39:02.090Z,1656
2018-06-02T06:39:27.592Z,1652
2018-06-02T06:39:53.059Z,1676
2018-06-02T06:40:18.564Z,1752
2018-06-02T06:40:44.090Z,1760
2018-06-02T06:41:09.549Z,1684
2018-06-02T06:41:35.061Z,1596
2018-06-02T06:42:00.557Z,1532
2018-06-02T06:42:26.054Z,1468
2018-06-02T06:42:51.523Z,1500
2018-06-02T06:43:17.043Z,1516
2018-06-02T06:43:42.531Z,1532
2018-06-02T06:44:08.023Z,1544
2018-06-02T06:44:33.561Z,1572
2018-06-02T06:44:58.987Z,1528
2018-06-02T06:45:24.490Z,1600
2018-06-02T06:45:50.000Z,1652
2018-06-02T06:46:15.502Z,1652
2018-06-02T06:46:40.974Z,1760
2018-06-02T06:47:06.497Z,1824
2018-06-02T06:47:32.017Z,1808
2018-06-02T06:47:57.458Z,1912
2018-06-02T06:48:22.972Z,1920
2018-06-02T06:48:48.463Z,1976
2018-06-02T06:49:13.969Z,1960
2018-06-02T06:49:39.444Z,2016
2018-06-02T06:50:04.970Z,2088
2018-06-02T06:50:30.413Z,2080
2018-06-02T06:50:55.913Z,2020
2018-06-02T06:51:21.375Z,1980
2018-06-02T06:51:46.893Z,1908
2018-06-02T06:52:12.417Z,1896
2018-06-02T06:52:37.884Z,1916
2018-06-02T06:53:03.387Z,1884
2018-06-02T06:53:28.954Z,1884
2018-06-02T06:53:54.470Z,2004
2018-06-02T06:54:19.999Z,1868
2018-06-02T06:54:45.444Z,1772
2018-06-02T06:55:10.984Z,1772
2018-06-02T06:55:36.466Z,1708
2018-06-02T06:56:01.962Z,1636
2018-06-02T06:56:27.497Z,1544
2018-06-02T06:56:52.990Z,1568
2018-06-02T06:57:18.448Z,1704
2018-06-02T06:57:44.000Z,1776
2018-06-02T06:58:09.477Z,1696
2018-06-02T06:58:34.977Z,1588
2018-06-02T06:59:00.478Z,1516
2018-06-02T06:59:25.999Z,1524
2018-06-02T06:59:51.478Z,1512
2018-06-02T07:00:16.976Z,1544
2018-06-02T07:00:42.480Z,1588
2018-06-02T07:01:08.024Z,1612
2018-06-02T07:01:33.547Z,1740
2018-06-02T07:02:47.470Z,1756
2018-06-02T07:03:12.958Z,1548
2018-06-02T07:03:38.469Z,1512
2018-06-02T07:04:04.011Z,1468
2018-06-02T07:04:29.540Z,1452
2018-06-02T07:04:55.065Z,1676
2018-06-02T07:05:20.638Z,1656
2018-06-02T07:05:46.292Z,1620
2018-06-02T07:06:11.783Z,1512
2018-06-02T07:06:37.286Z,1496
2018-06-02T07:07:02.773Z,1516
2018-06-02T07:07:28.249Z,1488
2018-06-02T07:07:53.788Z,1376
2018-06-02T07:08:19.247Z,1340
2018-06-02T07:08:44.754Z,1348
2018-06-02T07:09:10.302Z,1300
2018-06-02T07:09:35.781Z,1244
2018-06-02T07:10:01.258Z,1208
2018-06-02T07:10:26.729Z,1240
2018-06-02T07:10:52.223Z,1348
2018-06-02T07:11:17.693Z,1404
2018-06-02T07:11:43.249Z,1444
2018-06-02T07:12:08.732Z,1340
2018-06-02T07:12:34.301Z,1396
2018-06-02T07:12:59.806Z,1572
2018-06-02T07:13:25.330Z,1688
2018-06-02T07:13:50.820Z,1736
2018-06-02T07:14:16.321Z,1644
2018-06-02T07:14:41.811Z,1736
2018-06-02T07:15:07.380Z,1820
2018-06-02T07:15:33.007Z,1904
2018-06-02T07:15:58.473Z,2008
2018-06-02T07:16:23.965Z,1988
2018-06-02T07:16:49.437Z,1912
2018-06-02T07:17:14.961Z,1832
2018-06-02T07:17:40.442Z,1812
2018-06-02T07:18:05.903Z,1760
2018-06-02T07:18:31.407Z,1716
2018-06-02T07:18:56.913Z,1688
2018-06-02T07:19:22.410Z,1688
2018-06-02T07:19:47.918Z,1796
2018-06-02T07:20:13.393Z,1984
2018-06-02T07:20:38.882Z,2044
2018-06-02T07:21:04.344Z,2008
2018-06-02T07:21:29.877Z,1952
2018-06-02T07:21:55.377Z,1928
2018-06-02T07:22:20.874Z,1888
2018-06-02T07:22:46.491Z,1928
2018-06-02T07:23:11.998Z,2020
2018-06-02T07:23:37.490Z,1944
2018-06-02T07:24:02.987Z,1936
2018-06-02T07:24:28.479Z,2048
2018-06-02T07:24:54.047Z,2196
2018-06-02T07:25:19.503Z,2268
2018-06-02T07:25:44.988Z,2520
2018-06-02T07:26:10.475Z,2640
2018-06-02T07:26:36.019Z,2576
2018-06-02T07:27:01.503Z,2452
2018-06-02T07:27:27.010Z,2436
2018-06-02T07:27:52.520Z,2428
2018-06-02T07:28:17.981Z,2508
2018-06-02T07:28:43.565Z,3024
2018-06-02T07:29:09.083Z,3148
2018-06-02T07:29:34.547Z,3208
2018-06-02T07:30:00.021Z,3268
2018-06-02T07:30:25.539Z,3320
2018-06-02T07:30:51.068Z,3424
2018-06-02T07:31:16.560Z,3360
2018-06-02T07:31:42.073Z,3492
2018-06-02T07:32:07.573Z,3548
2018-06-02T07:32:33.065Z,3636
2018-06-02T07:33:41.307Z,3784
2018-06-02T07:34:06.846Z,4060
2018-06-02T07:34:32.345Z,3976
2018-06-02T07:34:58.056Z,3808
2018-06-02T07:35:23.527Z,3704
2018-06-02T07:35:49.062Z,3804
2018-06-02T07:36:14.592Z,3672
2018-06-02T07:36:40.061Z,3556
2018-06-02T07:37:05.525Z,3568
2018-06-02T07:37:31.119Z,3408
2018-06-02T07:37:56.645Z,3244
2018-06-02T07:38:22.124Z,3240
2018-06-02T07:38:47.596Z,3260
2018-06-02T07:39:13.095Z,3564
2018-06-02T07:39:38.572Z,3800
2018-06-02T07:40:04.115Z,3704
2018-06-02T07:40:29.585Z,3732
2018-06-02T07:40:55.101Z,3756
2018-06-02T07:41:20.634Z,3892
2018-06-02T07:41:46.164Z,3972
2018-06-02T07:42:11.671Z,3892
2018-06-02T07:42:37.186Z,3900
2018-06-02T07:43:02.700Z,3892
2018-06-02T07:43:28.181Z,3868
2018-06-02T07:43:53.714Z,3768
2018-06-02T07:44:19.186Z,3440
2018-06-02T07:44:44.672Z,3620
2018-06-02T07:45:10.236Z,3576
2018-06-02T07:45:35.662Z,3492
2018-06-02T07:46:01.182Z,3496
2018-06-02T07:46:26.667Z,3548
2018-06-02T07:46:52.194Z,3676
2018-06-02T07:47:17.681Z,3736
2018-06-02T07:47:43.235Z,3640
2018-06-02T07:48:08.775Z,3488
2018-06-02T07:48:34.252Z,3200
2018-06-02T07:48:59.736Z,3516
2018-06-02T07:49:25.260Z,3652
2018-06-02T07:49:50.805Z,3584
2018-06-02T07:50:16.352Z,3524
2018-06-02T07:50:41.823Z,3468
2018-06-02T07:51:07.298Z,3324
2018-06-02T07:51:32.797Z,3336
2018-06-02T07:51:58.267Z,3160
2018-06-02T07:52:23.727Z,2900
2018-06-02T07:52:49.196Z,2800
2018-06-02T07:53:14.679Z,2840
2018-06-02T07:53:40.204Z,2836
2018-06-02T07:54:05.737Z,2784
2018-06-02T07:54:31.233Z,2780
2018-06-02T07:54:56.770Z,2896
2018-06-02T07:55:22.285Z,3144
2018-06-02T07:55:47.849Z,3252
2018-06-02T07:56:13.861Z,3568
2018-06-02T07:56:39.434Z,4180
2018-06-02T07:57:04.950Z,4416
2018-06-02T07:57:30.415Z,4356
2018-06-02T07:57:55.901Z,4328
2018-06-02T07:58:21.351Z,4388
2018-06-02T07:58:46.817Z,4720
2018-06-02T07:59:12.345Z,4940
2018-06-02T07:59:37.949Z,4900
2018-06-02T08:00:03.414Z,4472
2018-06-02T08:00:28.943Z,4344
2018-06-02T08:00:54.445Z,4260
2018-06-02T08:01:20.107Z,4100
2018-06-02T08:01:45.415Z,4404
2018-06-02T08:02:10.910Z,4572
2018-06-02T08:02:36.454Z,4356
2018-06-02T08:03:02.615Z,4048
2018-06-02T08:03:28.488Z,3816
2018-06-02T08:03:54.131Z,3840
2018-06-02T08:04:19.690Z,4468
2018-06-02T08:04:45.489Z,4800
2018-06-02T08:05:10.953Z,4872
2018-06-02T08:05:36.454Z,4656
2018-06-02T08:06:02.049Z,4872
2018-06-02T08:06:27.511Z,4672
2018-06-02T08:06:53.021Z,4280
2018-06-02T08:07:18.568Z,5380
2018-06-02T08:07:44.083Z,6028
2018-06-02T08:08:09.546Z,5440
2018-06-02T08:08:35.157Z,4976
2018-06-02T08:09:00.632Z,4612
2018-06-02T08:10:19.604Z,6576
2018-06-02T08:10:45.099Z,7156
2018-06-02T08:11:10.848Z,7428
2018-06-02T08:11:36.460Z,7184
2018-06-02T08:12:02.100Z,6792
2018-06-02T08:12:27.650Z,6220
2018-06-02T08:12:53.244Z,5316
2018-06-02T08:13:18.782Z,5284
2018-06-02T08:13:44.276Z,5684
2018-06-02T08:14:09.761Z,5836
2018-06-02T08:14:35.234Z,5772
2018-06-02T08:15:00.768Z,5928
2018-06-02T08:15:26.214Z,6116
2018-06-02T08:15:51.732Z,6152
2018-06-02T08:16:17.206Z,5808
2018-06-02T08:16:42.651Z,5112
2018-06-02T08:17:08.126Z,4880
2018-06-02T08:17:33.609Z,5056
2018-06-02T08:17:59.098Z,5032
2018-06-02T08:18:24.617Z,4780
2018-06-02T08:18:50.061Z,4344
2018-06-02T08:19:15.666Z,4192
2018-06-02T08:19:41.175Z,4412
2018-06-02T08:20:06.628Z,4784
2018-06-02T08:20:32.200Z,4868
2018-06-02T08:20:57.590Z,4692
2018-06-02T08:21:23.107Z,4776
2018-06-02T08:21:49.162Z,4896
2018-06-02T08:22:15.770Z,4664
2018-06-02T08:22:41.645Z,4552
2018-06-02T08:23:07.903Z,4556
2018-06-02T08:23:33.291Z,4240
2018-06-02T08:23:58.838Z,4080
2018-06-02T08:24:25.026Z,4440
2018-06-02T08:24:51.130Z,4928
2018-06-02T08:25:16.591Z,4468
2018-06-02T08:25:42.080Z,4072
2018-06-02T08:26:07.581Z,3984
2018-06-02T08:26:33.103Z,4400
2018-06-02T08:26:58.652Z,4608
2018-06-02T08:27:24.237Z,4524
2018-06-02T08:27:49.693Z,4760
2018-06-02T08:28:15.160Z,4568
2018-06-02T08:28:40.700Z,4548
2018-06-02T08:29:06.186Z,4604
2018-06-02T08:29:31.706Z,4332
2018-06-02T08:29:57.154Z,4420
2018-06-02T08:30:22.665Z,4512
2018-06-02T08:30:48.169Z,4552
2018-06-02T08:31:14.004Z,5000
2018-06-02T08:31:40.836Z,4872
2018-06-02T08:32:06.775Z,4636
2018-06-02T08:32:32.859Z,4216
2018-06-02T08:32:58.770Z,3964
2018-06-02T08:33:24.403Z,4184
2018-06-02T08:33:49.870Z,4272
2018-06-02T08:34:15.332Z,3864
2018-06-02T08:34:40.821Z,3544
2018-06-02T08:35:06.301Z,3712
2018-06-02T08:35:31.832Z,3920
2018-06-02T08:35:57.368Z,3936
2018-06-02T08:37:11.415Z,4968
2018-06-02T08:37:36.918Z,4928
2018-06-02T08:38:02.387Z,4596
2018-06-02T08:38:27.861Z,4584
2018-06-02T08:38:53.350Z,4568
2018-06-02T08:39:18.828Z,4636
2018-06-02T08:39:44.274Z,4964
2018-06-02T08:40:09.753Z,5412
2018-06-02T08:40:35.252Z,5804
2018-06-02T08:41:00.750Z,5872
2018-06-02T08:41:26.214Z,5924
2018-06-02T08:41:51.689Z,5812
2018-06-02T08:42:17.177Z,5636
2018-06-02T08:42:42.646Z,5624
2018-06-02T08:43:08.223Z,5416
2018-06-02T08:43:33.727Z,5424
2018-06-02T08:43:59.239Z,5856
2018-06-02T08:44:24.686Z,6196
2018-06-02T08:44:50.172Z,6508
2018-06-02T08:45:15.670Z,6508
2018-06-02T08:45:41.184Z,6608
2018-06-02T08:46:06.681Z,6428
2018-06-02T08:46:32.265Z,6328
2018-06-02T08:46:57.613Z,6824
2018-06-02T08:47:23.106Z,6848
2018-06-02T08:47:48.586Z,6836
2018-06-02T08:48:14.051Z,7236
2018-06-02T08:48:39.522Z,7048
2018-06-02T08:49:04.994Z,6332
2018-06-02T08:49:30.461Z,6024
2018-06-02T08:50:53.996Z,5996
2018-06-02T08:51:19.487Z,5684
2018-06-02T08:51:45.007Z,5608
2018-06-02T08:52:10.550Z,5820
2018-06-02T08:52:36.031Z,6200
2018-06-02T08:53:01.579Z,6588
2018-06-02T08:53:27.063Z,6648
2018-06-02T08:53:52.602Z,6932
2018-06-02T08:54:18.151Z,7420
2018-06-02T08:54:43.594Z,7264
2018-06-02T08:55:09.130Z,6612
2018-06-02T08:55:34.606Z,6072
2018-06-02T08:56:00.111Z,6344
2018-06-02T08:56:25.605Z,6196
2018-06-02T08:56:51.076Z,6180
2018-06-02T08:58:10.030Z,6732
2018-06-02T08:58:35.517Z,6224
2018-06-02T08:59:01.010Z,5832
2018-06-02T08:59:26.516Z,5896
2018-06-02T08:59:52.010Z,6484
2018-06-02T09:00:17.504Z,6944
2018-06-02T09:00:42.943Z,6672
2018-06-02T09:01:08.475Z,6200
2018-06-02T09:01:34.078Z,6264
2018-06-02T09:01:59.553Z,6648
2018-06-02T09:02:25.085Z,7136
2018-06-02T09:02:50.603Z,6872
2018-06-02T09:03:16.077Z,6000
2018-06-02T09:03:41.542Z,5556
2018-06-02T09:04:07.023Z,5132
2018-06-02T09:04:32.499Z,5012
2018-06-02T09:04:58.033Z,5196
2018-06-02T09:05:23.570Z,5960
2018-06-02T09:05:48.995Z,6680
2018-06-02T09:06:14.497Z,6896
2018-06-02T09:06:40.185Z,6972
2018-06-02T09:07:05.458Z,6596
2018-06-02T09:07:30.953Z,6628
2018-06-02T09:07:56.419Z,7444
2018-06-02T09:09:00.033Z,8716
2018-06-02T09:09:25.521Z,8584
2018-06-02T09:09:51.018Z,9116
2018-06-02T09:10:16.534Z,9724
2018-06-02T09:10:42.066Z,9636
2018-06-02T09:11:07.538Z,8980
2018-06-02T09:11:33.034Z,8272
2018-06-02T09:11:58.537Z,7636
2018-06-02T09:12:23.995Z,7620
2018-06-02T09:12:49.466Z,8132
2018-06-02T09:13:14.987Z,8460
2018-06-02T09:13:40.533Z,8664
2018-06-02T09:14:06.004Z,8644
2018-06-02T09:14:31.471Z,8928
2018-06-02T09:15:34.631Z,8476
2018-06-02T09:16:00.096Z,7460
2018-06-02T09:16:25.602Z,7296
2018-06-02T09:16:51.475Z,8072
2018-06-02T09:17:16.947Z,8260
2018-06-02T09:17:42.447Z,7492
2018-06-02T09:18:07.906Z,6576
2018-06-02T09:18:33.370Z,5912
2018-06-02T09:18:58.827Z,5544
2018-06-02T09:19:24.305Z,5660
2018-06-02T09:19:49.802Z,5740
2018-06-02T09:20:15.292Z,5916
2018-06-02T09:20:40.819Z,6004
2018-06-02T09:21:06.334Z,5564
2018-06-02T09:21:31.818Z,5344
2018-06-02T09:21:57.406Z,5200
2018-06-02T09:22:22.885Z,5044
2018-06-02T09:22:48.412Z,4680
2018-06-02T09:23:13.949Z,4384
2018-06-02T09:23:39.432Z,4404
2018-06-02T09:24:04.906Z,5208
2018-06-02T09:24:30.439Z,6464
2018-06-02T09:24:55.905Z,7496
2018-06-02T09:25:21.407Z,8536
2018-06-02T09:25:46.910Z,9484
2018-06-02T09:26:12.386Z,10060
2018-06-02T09:26:37.868Z,9948
2018-06-02T09:27:03.392Z,9580
2018-06-02T09:27:28.868Z,9660
2018-06-02T09:27:54.349Z,9776
2018-06-02T09:28:19.873Z,9208
2018-06-02T09:28:45.373Z,8076
2018-06-02T09:29:10.873Z,6916
2018-06-02T09:29:36.371Z,6320
2018-06-02T09:30:01.855Z,6168
2018-06-02T09:30:27.323Z,6400
2018-06-02T09:30:52.838Z,6484
2018-06-02T09:31:18.350Z,6228
2018-06-02T09:31:43.837Z,6024
2018-06-02T09:32:09.322Z,6260
2018-06-02T09:32:34.833Z,6916
2018-06-02T09:33:00.328Z,7680
2018-06-02T09:33:25.825Z,9040
2018-06-02T09:33:51.295Z,10480
2018-06-02T09:34:16.776Z,11600
2018-06-02T09:34:42.289Z,12252
2018-06-02T09:35:07.884Z,12300
2018-06-02T09:35:33.352Z,12068
2018-06-02T09:35:58.801Z,11272
2018-06-02T09:36:24.271Z,10476
2018-06-02T09:36:49.758Z,10504
2018-06-02T09:37:15.293Z,10968
2018-06-02T09:37:40.757Z,10944
2018-06-02T09:38:06.282Z,11036
2018-06-02T09:38:31.891Z,11652
2018-06-02T09:38:57.372Z,12260
2018-06-02T09:39:22.877Z,12912
2018-06-02T09:39:48.350Z,13436
2018-06-02T09:40:13.860Z,13712
2018-06-02T09:40:39.333Z,13872
2018-06-02T09:41:04.825Z,14272
2018-06-02T09:41:30.331Z,14704
2018-06-02T09:41:55.817Z,14860
2018-06-02T09:42:21.326Z,14864
2018-06-02T09:42:46.972Z,14852
2018-06-02T09:43:13.590Z,14988
2018-06-02T09:43:39.073Z,15144
2018-06-02T09:44:04.570Z,15192
2018-06-02T09:44:30.130Z,15260
2018-06-02T09:44:55.674Z,15096
2018-06-02T09:45:21.133Z,14716
2018-06-02T09:45:46.629Z,14156
2018-06-02T09:46:12.140Z,12936
2018-06-02T09:46:37.646Z,11804
2018-06-02T09:47:03.140Z,11012
2018-06-02T09:47:28.642Z,10324
2018-06-02T09:47:54.152Z,10148
2018-06-02T09:48:19.658Z,9732
2018-06-02T09:48:45.164Z,9056
2018-06-02T09:49:10.661Z,9188
2018-06-02T09:49:36.196Z,10196
2018-06-02T09:50:01.659Z,11224
2018-06-02T09:50:27.177Z,11356
2018-06-02T09:50:52.997Z,11352
2018-06-02T09:51:18.420Z,11512
2018-06-02T09:51:43.890Z,11272
2018-06-02T09:52:09.415Z,10364
2018-06-02T09:52:34.930Z,9388
2018-06-02T09:53:00.448Z,8944
2018-06-02T09:53:25.969Z,9156
2018-06-02T09:53:51.492Z,9684
2018-06-02T09:54:17.004Z,10376
2018-06-02T09:54:42.579Z,10992
2018-06-02T09:55:08.125Z,11176
2018-06-02T09:55:33.849Z,11068
2018-06-02T09:55:59.540Z,10804
2018-06-02T09:56:25.052Z,10268
2018-06-02T09:56:50.504Z,9808
2018-06-02T09:57:16.009Z,9476
2018-06-02T09:57:41.512Z,9064
2018-06-02T09:58:06.966Z,8492
2018-06-02T09:58:32.444Z,7736
2018-06-02T09:59:36.423Z,5668
2018-06-02T10:00:01.966Z,5652
2018-06-02T10:00:27.508Z,6360
2018-06-02T10:00:52.900Z,7336
2018-06-02T10:01:18.388Z,8268
2018-06-02T10:01:43.972Z,8600
2018-06-02T10:02:09.423Z,8544
2018-06-02T10:02:34.921Z,8460
2018-06-02T10:03:00.696Z,8252
2018-06-02T10:03:26.411Z,8068
2018-06-02T10:03:51.900Z,7664
2018-06-02T10:04:17.527Z,7196
2018-06-02T10:04:43.603Z,6752